Terminal Aerodrome Forecast
Issued by NWS Tuscon, AZ

Home | Current Version | Previous Version | Text Only | Print | Product List | Glossary On
Versions: 1 2 3 4 5 6 7 8 9 10 11 12 13 14 15 16 17 18 19 20 21
000
FTUS45 KTWC 282327
TAFTUS
TAF
KTUS 282327Z 2900/2924 10008KT P6SM VCSH SCT070 BKN100
     FM290300 15006KT P6SM SCT110 BKN150
     FM292000 15010KT P6SM VCSH SCT090 BKN120=

USA.gov is the U.S. government's official web portal to all federal, state and local government web resources and services.